sensor_id;sensor_type;location;lat;lon;timestamp;pressure;altitude;pressure_sealevel;temperature;humidity
86115;BME280;76768;49.464;10.882;2024-02-26T00:01:00;96120.22;;;2.05;74.99
86115;BME280;76768;49.464;10.882;2024-02-26T00:03:25;96107.81;;;1.97;74.20
86115;BME280;76768;49.464;10.882;2024-02-26T00:05:50;96110.19;;;1.95;74.82
86115;BME280;76768;49.464;10.882;2024-02-26T00:08:16;96111.81;;;1.92;73.95
86115;BME280;76768;49.464;10.882;2024-02-26T00:10:41;96111.75;;;1.96;73.90
86115;BME280;76768;49.464;10.882;2024-02-26T00:13:07;96117.25;;;1.96;73.88
86115;BME280;76768;49.464;10.882;2024-02-26T00:15:33;96113.31;;;1.97;74.98
86115;BME280;76768;49.464;10.882;2024-02-26T00:18:00;96105.13;;;1.93;75.97
86115;BME280;76768;49.464;10.882;2024-02-26T00:20:26;96109.91;;;1.89;73.84
86115;BME280;76768;49.464;10.882;2024-02-26T00:22:51;96106.00;;;1.87;76.84
86115;BME280;76768;49.464;10.882;2024-02-26T00:25:17;96104.84;;;1.88;75.59
86115;BME280;76768;49.464;10.882;2024-02-26T00:27:42;96103.31;;;1.83;75.65
86115;BME280;76768;49.464;10.882;2024-02-26T00:30:09;96096.00;;;1.77;73.96
86115;BME280;76768;49.464;10.882;2024-02-26T00:32:34;96097.19;;;1.76;73.84
86115;BME280;76768;49.464;10.882;2024-02-26T00:35:00;96092.44;;;1.80;75.45
86115;BME280;76768;49.464;10.882;2024-02-26T00:37:25;96096.34;;;1.79;75.44
86115;BME280;76768;49.464;10.882;2024-02-26T00:39:50;96096.00;;;1.77;74.58
86115;BME280;76768;49.464;10.882;2024-02-26T00:42:15;96090.16;;;1.74;75.95
86115;BME280;76768;49.464;10.882;2024-02-26T00:44:41;96091.78;;;1.72;76.94
86115;BME280;76768;49.464;10.882;2024-02-26T00:47:06;96101.09;;;1.74;76.64
86115;BME280;76768;49.464;10.882;2024-02-26T00:49:31;96088.19;;;1.75;74.15
86115;BME280;76768;49.464;10.882;2024-02-26T00:51:56;96087.06;;;1.72;76.39
86115;BME280;76768;49.464;10.882;2024-02-26T00:54:22;96091.72;;;1.76;75.70
86115;BME280;76768;49.464;10.882;2024-02-26T00:56:47;96103.06;;;1.74;75.94
86115;BME280;76768;49.464;10.882;2024-02-26T00:59:12;96087.94;;;1.66;76.81
86115;BME280;76768;49.464;10.882;2024-02-26T01:01:37;96091.34;;;1.73;76.64
86115;BME280;76768;49.464;10.882;2024-02-26T01:04:03;96098.03;;;1.72;75.33
86115;BME280;76768;49.464;10.882;2024-02-26T01:06:28;96082.41;;;1.69;77.06
86115;BME280;76768;49.464;10.882;2024-02-26T01:08:53;96076.94;;;1.69;77.58
86115;BME280;76768;49.464;10.882;2024-02-26T01:11:19;96098.03;;;1.72;78.59
86115;BME280;76768;49.464;10.882;2024-02-26T01:13:44;96091.81;;;1.68;78.58
86115;BME280;76768;49.464;10.882;2024-02-26T01:16:09;96076.94;;;1.69;79.33
86115;BME280;76768;49.464;10.882;2024-02-26T01:18:36;96085.09;;;1.73;78.48
86115;BME280;76768;49.464;10.882;2024-02-26T01:21:01;96090.16;;;1.74;78.83
86115;BME280;76768;49.464;10.882;2024-02-26T01:23:26;96090.09;;;1.78;78.50
86115;BME280;76768;49.464;10.882;2024-02-26T01:25:52;96092.44;;;1.80;78.35
86115;BME280;76768;49.464;10.882;2024-02-26T01:28:17;96087.69;;;1.84;79.94
86115;BME280;76768;49.464;10.882;2024-02-26T01:30:42;96088.75;;;1.90;78.47
86115;BME280;76768;49.464;10.882;2024-02-26T01:33:08;96085.97;;;1.93;78.76
86115;BME280;76768;49.464;10.882;2024-02-26T01:35:33;96087.41;;;2.02;80.17
86115;BME280;76768;49.464;10.882;2024-02-26T01:37:58;96079.97;;;2.02;80.01
86115;BME280;76768;49.464;10.882;2024-02-26T01:40:26;96077.22;;;2.02;78.94
86115;BME280;76768;49.464;10.882;2024-02-26T01:42:52;96079.44;;;2.11;78.35
86115;BME280;76768;49.464;10.882;2024-02-26T01:45:18;96072.41;;;2.10;79.50
86115;BME280;76768;49.464;10.882;2024-02-26T01:47:50;96072.41;;;2.10;78.94
86115;BME280;76768;49.464;10.882;2024-02-26T01:50:17;96073.13;;;2.14;79.49
86115;BME280;76768;49.464;10.882;2024-02-26T01:52:44;96072.69;;;2.15;80.07
86115;BME280;76768;49.464;10.882;2024-02-26T01:55:11;96077.41;;;2.15;78.96
86115;BME280;76768;49.464;10.882;2024-02-26T01:57:39;96083.19;;;2.20;80.92
86115;BME280;76768;49.464;10.882;2024-02-26T02:00:05;96092.47;;;2.27;80.39
86115;BME280;76768;49.464;10.882;2024-02-26T02:02:33;96090.47;;;2.31;77.84
86115;BME280;76768;49.464;10.882;2024-02-26T02:04:59;96087.72;;;2.31;79.16
86115;BME280;76768;49.464;10.882;2024-02-26T02:07:25;96086.88;;;2.34;78.53
86115;BME280;76768;49.464;10.882;2024-02-26T02:09:51;96083.44;;;2.30;79.05
86115;BME280;76768;49.464;10.882;2024-02-26T02:12:16;96084.53;;;2.32;79.38
86115;BME280;76768;49.464;10.882;2024-02-26T02:14:42;96084.97;;;2.31;78.87
86115;BME280;76768;49.464;10.882;2024-02-26T02:17:08;96077.59;;;2.28;78.75
86115;BME280;76768;49.464;10.882;2024-02-26T02:19:33;96084.97;;;2.31;78.72
86115;BME280;76768;49.464;10.882;2024-02-26T02:21:58;96086.88;;;2.34;80.57
86115;BME280;76768;49.464;10.882;2024-02-26T02:24:24;96091.53;;;2.37;79.15
86115;BME280;76768;49.464;10.882;2024-02-26T02:26:49;96091.94;;;2.35;81.50
86115;BME280;76768;49.464;10.882;2024-02-26T02:29:14;96084.53;;;2.32;81.20
86115;BME280;76768;49.464;10.882;2024-02-26T02:31:41;96090.34;;;2.38;80.90
86115;BME280;76768;49.464;10.882;2024-02-26T02:34:07;96082.13;;;2.38;79.81
86115;BME280;76768;49.464;10.882;2024-02-26T02:36:32;96088.31;;;2.42;79.71
86115;BME280;76768;49.464;10.882;2024-02-26T02:38:58;96086.69;;;2.44;79.85
86115;BME280;76768;49.464;10.882;2024-02-26T02:41:23;96082.84;;;2.42;78.98
86115;BME280;76768;49.464;10.882;2024-02-26T02:43:49;96083.53;;;2.46;79.55
86115;BME280;76768;49.464;10.882;2024-02-26T02:46:14;96084.38;;;2.43;79.46
86115;BME280;76768;49.464;10.882;2024-02-26T02:48:41;96076.16;;;2.43;78.88
86115;BME280;76768;49.464;10.882;2024-02-26T02:51:07;96074.94;;;2.44;78.92
86115;BME280;76768;49.464;10.882;2024-02-26T02:53:32;96078.41;;;2.48;80.04
86115;BME280;76768;49.464;10.882;2024-02-26T02:55:57;96073.78;;;2.45;78.81
86115;BME280;76768;49.464;10.882;2024-02-26T02:58:22;96072.56;;;2.46;79.08
86115;BME280;76768;49.464;10.882;2024-02-26T03:00:48;96072.56;;;2.46;79.45
86115;BME280;76768;49.464;10.882;2024-02-26T03:03:13;96069.47;;;2.44;79.13
86115;BME280;76768;49.464;10.882;2024-02-26T03:05:38;96082.00;;;2.45;79.61
86115;BME280;76768;49.464;10.882;2024-02-26T03:08:04;96078.88;;;2.43;81.13
86115;BME280;76768;49.464;10.882;2024-02-26T03:10:29;96077.34;;;2.42;78.89
86115;BME280;76768;49.464;10.882;2024-02-26T03:12:54;96076.63;;;2.38;79.46
86115;BME280;76768;49.464;10.882;2024-02-26T03:15:21;96067.94;;;2.43;79.40
86115;BME280;76768;49.464;10.882;2024-02-26T03:17:47;96074.25;;;2.40;79.74
86115;BME280;76768;49.464;10.882;2024-02-26T03:20:12;96075.81;;;2.41;79.63
86115;BME280;76768;49.464;10.882;2024-02-26T03:22:38;96085.16;;;2.43;80.12
86115;BME280;76768;49.464;10.882;2024-02-26T03:25:04;96092.09;;;2.48;79.23
86115;BME280;76768;49.464;10.882;2024-02-26T03:27:30;96076.59;;;2.41;78.72
86115;BME280;76768;49.464;10.882;2024-02-26T03:29:55;96093.69;;;2.49;78.57
86115;BME280;76768;49.464;10.882;2024-02-26T03:32:20;96091.34;;;2.47;78.59
86115;BME280;76768;49.464;10.882;2024-02-26T03:34:46;96090.50;;;2.51;78.75
86115;BME280;76768;49.464;10.882;2024-02-26T03:37:11;96092.09;;;2.48;78.34
86115;BME280;76768;49.464;10.882;2024-02-26T03:39:37;96089.38;;;2.48;78.23
86115;BME280;76768;49.464;10.882;2024-02-26T03:42:03;96085.91;;;2.44;80.04
86115;BME280;76768;49.464;10.882;2024-02-26T03:44:28;96081.28;;;2.41;80.30
86115;BME280;76768;49.464;10.882;2024-02-26T03:46:54;96065.34;;;2.32;82.09
86115;BME280;76768;49.464;10.882;2024-02-26T03:49:19;96059.59;;;2.27;81.66
86115;BME280;76768;49.464;10.882;2024-02-26T03:51:44;96070.44;;;2.34;81.11
86115;BME280;76768;49.464;10.882;2024-02-26T03:54:10;96064.91;;;2.37;80.14
86115;BME280;76768;49.464;10.882;2024-02-26T03:56:35;96071.88;;;2.42;79.70
86115;BME280;76768;49.464;10.882;2024-02-26T03:59:00;96078.88;;;2.43;78.64
86115;BME280;76768;49.464;10.882;2024-02-26T04:01:27;96067.09;;;2.46;79.01
86115;BME280;76768;49.464;10.882;2024-02-26T04:03:53;96062.44;;;2.43;79.68
86115;BME280;76768;49.464;10.882;2024-02-26T04:06:18;96080.81;;;2.46;78.97
86115;BME280;76768;49.464;10.882;2024-02-26T04:08:46;96078.06;;;2.46;78.72
86115;BME280;76768;49.464;10.882;2024-02-26T04:11:11;96072.25;;;2.40;79.50
86115;BME280;76768;49.464;10.882;2024-02-26T04:13:37;96086.69;;;2.44;79.92
86115;BME280;76768;49.464;10.882;2024-02-26T04:16:06;96084.44;;;2.39;78.91
86115;BME280;76768;49.464;10.882;2024-02-26T04:18:32;96082.94;;;2.35;78.76
86115;BME280;76768;49.464;10.882;2024-02-26T04:20:57;96087.59;;;2.38;78.50
86115;BME280;76768;49.464;10.882;2024-02-26T04:23:23;96074.38;;;2.33;79.71
86115;BME280;76768;49.464;10.882;2024-02-26T04:25:48;96066.63;;;2.28;78.45
86115;BME280;76768;49.464;10.882;2024-02-26T04:28:14;96079.16;;;2.29;79.63
86115;BME280;76768;49.464;10.882;2024-02-26T04:30:39;96081.03;;;2.32;79.49
86115;BME280;76768;49.464;10.882;2024-02-26T04:33:05;96089.63;;;2.34;79.83
86115;BME280;76768;49.464;10.882;2024-02-26T04:35:30;96079.88;;;2.33;80.74
86115;BME280;76768;49.464;10.882;2024-02-26T04:37:56;96079.16;;;2.29;82.32
86115;BME280;76768;49.464;10.882;2024-02-26T04:40:21;96072.97;;;2.25;81.14
86115;BME280;76768;49.464;10.882;2024-02-26T04:42:46;96090.81;;;2.33;79.61
86115;BME280;76768;49.464;10.882;2024-02-26T04:45:12;96093.56;;;2.33;79.53
86115;BME280;76768;49.464;10.882;2024-02-26T04:47:37;96097.03;;;2.37;80.43
86115;BME280;76768;49.464;10.882;2024-02-26T04:50:03;96094.75;;;2.32;79.22
86115;BME280;76768;49.464;10.882;2024-02-26T04:52:29;96095.09;;;2.34;78.73
86115;BME280;76768;49.464;10.882;2024-02-26T04:54:54;96098.63;;;2.34;78.54
86115;BME280;76768;49.464;10.882;2024-02-26T04:57:20;96105.59;;;2.39;80.08
86115;BME280;76768;49.464;10.882;2024-02-26T04:59:45;96110.72;;;2.37;79.82
86115;BME280;76768;49.464;10.882;2024-02-26T05:02:11;96111.91;;;2.36;79.99
86115;BME280;76768;49.464;10.882;2024-02-26T05:04:37;96098.69;;;2.31;80.71
86115;BME280;76768;49.464;10.882;2024-02-26T05:07:02;96097.19;;;2.26;80.19
86115;BME280;76768;49.464;10.882;2024-02-26T05:09:27;96113.56;;;2.30;79.96
86115;BME280;76768;49.464;10.882;2024-02-26T05:11:53;96095.22;;;2.27;80.33
86115;BME280;76768;49.464;10.882;2024-02-26T05:14:18;96093.31;;;2.23;79.50
86115;BME280;76768;49.464;10.882;2024-02-26T05:16:43;96099.88;;;2.30;80.46
86115;BME280;76768;49.464;10.882;2024-02-26T05:19:09;96106.47;;;2.32;81.02
86115;BME280;76768;49.464;10.882;2024-02-26T05:21:34;96110.13;;;2.26;81.68
86115;BME280;76768;49.464;10.882;2024-02-26T05:24:00;96104.28;;;2.23;81.67
86115;BME280;76768;49.464;10.882;2024-02-26T05:26:25;96119.16;;;2.22;81.46
86115;BME280;76768;49.464;10.882;2024-02-26T05:28:50;96121.09;;;2.26;82.08
86115;BME280;76768;49.464;10.882;2024-02-26T05:31:16;96129.41;;;2.18;81.71
86115;BME280;76768;49.464;10.882;2024-02-26T05:33:43;96139.50;;;2.25;83.42
86115;BME280;76768;49.464;10.882;2024-02-26T05:36:08;96139.56;;;2.21;82.71
86115;BME280;76768;49.464;10.882;2024-02-26T05:38:33;96132.44;;;2.24;81.88
86115;BME280;76768;49.464;10.882;2024-02-26T05:40:59;96126.97;;;2.24;83.28
86115;BME280;76768;49.464;10.882;2024-02-26T05:43:25;96139.44;;;2.29;80.44
86115;BME280;76768;49.464;10.882;2024-02-26T05:45:51;96125.38;;;2.27;81.55
86115;BME280;76768;49.464;10.882;2024-02-26T05:48:19;96137.81;;;2.31;82.21
86115;BME280;76768;49.464;10.882;2024-02-26T05:50:48;96137.00;;;2.34;81.78
86115;BME280;76768;49.464;10.882;2024-02-26T05:53:14;96124.06;;;2.35;81.53
86115;BME280;76768;49.464;10.882;2024-02-26T05:55:40;96119.06;;;2.30;81.32
86115;BME280;76768;49.464;10.882;2024-02-26T05:58:05;96123.72;;;2.33;82.47
86115;BME280;76768;49.464;10.882;2024-02-26T06:00:30;96122.50;;;2.34;81.41
86115;BME280;76768;49.464;10.882;2024-02-26T06:02:56;96120.59;;;2.31;81.66
86115;BME280;76768;49.464;10.882;2024-02-26T06:05:21;96116.31;;;2.30;81.30
86115;BME280;76768;49.464;10.882;2024-02-26T06:07:47;96123.72;;;2.33;82.77
86115;BME280;76768;49.464;10.882;2024-02-26T06:10:12;96137.75;;;2.35;81.96
86115;BME280;76768;49.464;10.882;2024-02-26T06:12:39;96148.00;;;2.31;81.21
86115;BME280;76768;49.464;10.882;2024-02-26T06:15:04;96149.88;;;2.37;81.22
86115;BME280;76768;49.464;10.882;2024-02-26T06:17:30;96146.34;;;2.37;81.36
86115;BME280;76768;49.464;10.882;2024-02-26T06:19:55;96147.00;;;2.44;81.28
86115;BME280;76768;49.464;10.882;2024-02-26T06:22:20;96141.94;;;2.43;80.76
86115;BME280;76768;49.464;10.882;2024-02-26T06:24:45;96139.91;;;2.47;81.55
86115;BME280;76768;49.464;10.882;2024-02-26T06:27:11;96150.41;;;2.52;80.51
86115;BME280;76768;49.464;10.882;2024-02-26T06:29:37;96156.25;;;2.54;80.15
86115;BME280;76768;49.464;10.882;2024-02-26T06:32:02;96145.28;;;2.54;81.18
86115;BME280;76768;49.464;10.882;2024-02-26T06:34:28;96164.41;;;2.58;80.19
86115;BME280;76768;49.464;10.882;2024-02-26T06:36:53;96171.03;;;2.60;80.47
86115;BME280;76768;49.464;10.882;2024-02-26T06:39:19;96156.97;;;2.58;80.83
86115;BME280;76768;49.464;10.882;2024-02-26T06:41:44;96155.28;;;2.64;81.61
86115;BME280;76768;49.464;10.882;2024-02-26T06:44:11;96138.13;;;2.60;83.43
86115;BME280;76768;49.464;10.882;2024-02-26T06:46:37;96143.97;;;2.62;81.91
86115;BME280;76768;49.464;10.882;2024-02-26T06:49:02;96146.22;;;2.67;81.60
86115;BME280;76768;49.464;10.882;2024-02-26T06:51:27;96157.47;;;2.73;82.15
86115;BME280;76768;49.464;10.882;2024-02-26T06:53:53;96154.34;;;2.75;80.20
86115;BME280;76768;49.464;10.882;2024-02-26T06:56:18;96153.91;;;2.76;80.41
86115;BME280;76768;49.464;10.882;2024-02-26T06:58:44;96162.09;;;2.80;81.98
86115;BME280;76768;49.464;10.882;2024-02-26T07:01:11;96161.03;;;2.73;82.56
86115;BME280;76768;49.464;10.882;2024-02-26T07:03:36;96159.00;;;2.78;81.44
86115;BME280;76768;49.464;10.882;2024-02-26T07:06:02;96166.75;;;2.83;81.87
86115;BME280;76768;49.464;10.882;2024-02-26T07:08:27;96182.38;;;2.86;80.93
86115;BME280;76768;49.464;10.882;2024-02-26T07:10:52;96207.41;;;2.88;82.62
86115;BME280;76768;49.464;10.882;2024-02-26T07:13:18;96192.47;;;2.89;82.19
86115;BME280;76768;49.464;10.882;2024-02-26T07:15:43;96197.50;;;2.94;81.54
86115;BME280;76768;49.464;10.882;2024-02-26T07:18:08;96198.56;;;3.00;82.21
86115;BME280;76768;49.464;10.882;2024-02-26T07:20:34;96203.56;;;3.05;82.53
86115;BME280;76768;49.464;10.882;2024-02-26T07:22:59;96192.94;;;3.07;81.48
86115;BME280;76768;49.464;10.882;2024-02-26T07:25:25;96198.22;;;3.18;81.10
86115;BME280;76768;49.464;10.882;2024-02-26T07:27:50;96192.63;;;3.25;81.09
86115;BME280;76768;49.464;10.882;2024-02-26T07:30:16;96193.25;;;3.33;81.41
86115;BME280;76768;49.464;10.882;2024-02-26T07:32:42;96198.56;;;3.43;80.67
86115;BME280;76768;49.464;10.882;2024-02-26T07:35:08;96190.59;;;3.49;80.38
86115;BME280;76768;49.464;10.882;2024-02-26T07:37:33;96199.72;;;3.62;80.31
86115;BME280;76768;49.464;10.882;2024-02-26T07:39:58;96194.09;;;3.69;80.19
86115;BME280;76768;49.464;10.882;2024-02-26T07:42:23;96202.91;;;3.81;79.24
86115;BME280;76768;49.464;10.882;2024-02-26T07:44:49;96192.69;;;3.81;78.75
86115;BME280;76768;49.464;10.882;2024-02-26T07:47:14;96208.47;;;3.97;78.79
86115;BME280;76768;49.464;10.882;2024-02-26T07:49:40;96213.81;;;4.04;77.14
86115;BME280;76768;49.464;10.882;2024-02-26T07:52:05;96216.03;;;4.09;77.53
86115;BME280;76768;49.464;10.882;2024-02-26T07:54:31;96225.31;;;4.15;77.41
86115;BME280;76768;49.464;10.882;2024-02-26T07:56:56;96240.47;;;4.23;77.05
86115;BME280;76768;49.464;10.882;2024-02-26T07:59:21;96239.97;;;4.29;77.15
86115;BME280;76768;49.464;10.882;2024-02-26T08:01:50;96241.53;;;4.30;76.24
86115;BME280;76768;49.464;10.882;2024-02-26T08:04:16;96250.09;;;4.32;76.13
86115;BME280;76768;49.464;10.882;2024-02-26T08:06:41;96247.72;;;4.34;76.43
86115;BME280;76768;49.464;10.882;2024-02-26T08:09:08;96239.72;;;4.39;76.20
86115;BME280;76768;49.464;10.882;2024-02-26T08:11:33;96239.66;;;4.43;75.34
86115;BME280;76768;49.464;10.882;2024-02-26T08:13:58;96248.25;;;4.45;75.26
86115;BME280;76768;49.464;10.882;2024-02-26T08:16:24;96252.19;;;4.44;75.60
86115;BME280;76768;49.464;10.882;2024-02-26T08:18:49;96245.84;;;4.47;76.14
86115;BME280;76768;49.464;10.882;2024-02-26T08:21:15;96248.16;;;4.48;75.85
86115;BME280;76768;49.464;10.882;2024-02-26T08:23:40;96252.03;;;4.51;75.53
86115;BME280;76768;49.464;10.882;2024-02-26T08:26:05;96252.03;;;4.51;75.10
86115;BME280;76768;49.464;10.882;2024-02-26T08:28:32;96251.00;;;4.45;74.83
86115;BME280;76768;49.464;10.882;2024-02-26T08:30:57;96252.47;;;4.50;74.37
86115;BME280;76768;49.464;10.882;2024-02-26T08:33:23;96248.06;;;4.52;75.28
86115;BME280;76768;49.464;10.882;2024-02-26T08:35:49;96261.25;;;4.61;74.62
86115;BME280;76768;49.464;10.882;2024-02-26T08:38:14;96247.91;;;4.59;74.87
86115;BME280;76768;49.464;10.882;2024-02-26T08:40:39;96264.97;;;4.70;75.45
86115;BME280;76768;49.464;10.882;2024-02-26T08:43:05;96262.38;;;4.80;75.08
86115;BME280;76768;49.464;10.882;2024-02-26T08:45:30;96262.31;;;4.83;74.34
86115;BME280;76768;49.464;10.882;2024-02-26T08:47:55;96270.31;;;4.94;74.28
86115;BME280;76768;49.464;10.882;2024-02-26T08:50:21;96265.81;;;5.00;73.50
86115;BME280;76768;49.464;10.882;2024-02-26T08:52:46;96263.44;;;5.02;71.80
86115;BME280;76768;49.464;10.882;2024-02-26T08:55:15;96264.81;;;5.10;72.63
86115;BME280;76768;49.464;10.882;2024-02-26T08:57:40;96259.97;;;5.14;73.21
86115;BME280;76768;49.464;10.882;2024-02-26T09:00:06;96268.03;;;5.21;71.50
86115;BME280;76768;49.464;10.882;2024-02-26T09:02:32;96275.28;;;5.32;71.79
86115;BME280;76768;49.464;10.882;2024-02-26T09:04:58;96273.53;;;5.38;72.02
86115;BME280;76768;49.464;10.882;2024-02-26T09:07:24;96269.38;;;5.46;72.25
86115;BME280;76768;49.464;10.882;2024-02-26T09:09:49;96261.81;;;5.50;72.55
86115;BME280;76768;49.464;10.882;2024-02-26T09:12:14;96260.22;;;5.65;71.03
86115;BME280;76768;49.464;10.882;2024-02-26T09:14:39;96261.66;;;5.70;70.44
86115;BME280;76768;49.464;10.882;2024-02-26T09:17:05;96259.16;;;5.76;69.63
86115;BME280;76768;49.464;10.882;2024-02-26T09:19:32;96253.53;;;5.79;67.75
86115;BME280;76768;49.464;10.882;2024-02-26T09:21:58;96243.09;;;5.87;68.98
86115;BME280;76768;49.464;10.882;2024-02-26T09:24:24;96244.38;;;5.99;68.63
86115;BME280;76768;49.464;10.882;2024-02-26T09:26:50;96226.66;;;6.12;68.74
86115;BME280;76768;49.464;10.882;2024-02-26T09:29:16;96213.66;;;6.26;66.64
86115;BME280;76768;49.464;10.882;2024-02-26T09:31:41;96208.59;;;6.37;66.34
86115;BME280;76768;49.464;10.882;2024-02-26T09:34:07;96204.38;;;6.45;66.13
86115;BME280;76768;49.464;10.882;2024-02-26T09:36:33;96214.53;;;6.48;64.29
86115;BME280;76768;49.464;10.882;2024-02-26T09:38:58;96216.75;;;6.53;64.61
86115;BME280;76768;49.464;10.882;2024-02-26T09:41:26;96211.44;;;6.59;64.73
86115;BME280;76768;49.464;10.882;2024-02-26T09:43:56;96212.56;;;6.61;63.98
86115;BME280;76768;49.464;10.882;2024-02-26T09:46:22;96226.56;;;6.67;64.12
86115;BME280;76768;49.464;10.882;2024-02-26T09:48:48;96236.63;;;6.74;64.11
86115;BME280;76768;49.464;10.882;2024-02-26T09:51:14;96237.47;;;6.83;64.12
86115;BME280;76768;49.464;10.882;2024-02-26T09:53:43;96242.44;;;6.88;63.38
86115;BME280;76768;49.464;10.882;2024-02-26T09:56:09;96239.25;;;6.90;62.71
86115;BME280;76768;49.464;10.882;2024-02-26T09:58:36;96238.03;;;6.91;61.99
86115;BME280;76768;49.464;10.882;2024-02-26T10:01:02;96242.88;;;7.00;62.44
86115;BME280;76768;49.464;10.882;2024-02-26T10:03:32;96241.22;;;7.02;62.63
86115;BME280;76768;49.464;10.882;2024-02-26T10:05:59;96243.31;;;7.11;62.89
86115;BME280;76768;49.464;10.882;2024-02-26T10:08:25;96253.56;;;7.23;62.09
86115;BME280;76768;49.464;10.882;2024-02-26T10:10:52;96251.34;;;7.31;63.24
86115;BME280;76768;49.464;10.882;2024-02-26T10:13:18;96241.91;;;7.41;61.49
86115;BME280;76768;49.464;10.882;2024-02-26T10:15:45;96255.34;;;7.52;61.50
86115;BME280;76768;49.464;10.882;2024-02-26T10:18:11;96254.97;;;7.62;60.88
86115;BME280;76768;49.464;10.882;2024-02-26T10:20:36;96258.16;;;7.74;59.07
86115;BME280;76768;49.464;10.882;2024-02-26T10:23:03;96251.91;;;7.82;60.50
86115;BME280;76768;49.464;10.882;2024-02-26T10:25:28;96261.72;;;7.96;60.13
86115;BME280;76768;49.464;10.882;2024-02-26T10:27:59;96262.06;;;8.07;60.64
86115;BME280;76768;49.464;10.882;2024-02-26T10:30:24;96260.91;;;8.17;59.79
86115;BME280;76768;49.464;10.882;2024-02-26T10:32:51;96267.75;;;8.26;59.18
86115;BME280;76768;49.464;10.882;2024-02-26T10:35:18;96268.88;;;8.15;59.14
86115;BME280;76768;49.464;10.882;2024-02-26T10:37:44;96266.59;;;8.14;59.42
86115;BME280;76768;49.464;10.882;2024-02-26T10:40:13;96277.91;;;8.29;58.80
86115;BME280;76768;49.464;10.882;2024-02-26T10:42:39;96278.28;;;8.40;60.25
86115;BME280;76768;49.464;10.882;2024-02-26T10:45:06;96282.28;;;8.39;58.11
86115;BME280;76768;49.464;10.882;2024-02-26T10:47:32;96279.53;;;8.39;58.14
86115;BME280;76768;49.464;10.882;2024-02-26T10:49:59;96279.56;;;8.48;58.91
86115;BME280;76768;49.464;10.882;2024-02-26T10:52:25;96276.06;;;8.57;58.99
86115;BME280;76768;49.464;10.882;2024-02-26T10:54:53;96274.00;;;8.70;57.01
86115;BME280;76768;49.464;10.882;2024-02-26T10:57:22;96283.75;;;8.84;58.44
86115;BME280;76768;49.464;10.882;2024-02-26T10:59:49;96282.09;;;8.96;57.28
86115;BME280;76768;49.464;10.882;2024-02-26T11:02:17;96288.03;;;9.16;57.39
86115;BME280;76768;49.464;10.882;2024-02-26T11:04:43;96290.38;;;9.27;55.42
86115;BME280;76768;49.464;10.882;2024-02-26T11:07:09;96281.16;;;9.39;55.32
86115;BME280;76768;49.464;10.882;2024-02-26T11:09:36;96284.22;;;9.50;56.15
86115;BME280;76768;49.464;10.882;2024-02-26T11:12:08;96287.03;;;9.68;54.22
86115;BME280;76768;49.464;10.882;2024-02-26T11:14:36;96280.59;;;9.72;53.06
86115;BME280;76768;49.464;10.882;2024-02-26T11:17:04;96288.91;;;9.90;53.09
86115;BME280;76768;49.464;10.882;2024-02-26T11:19:31;96290.13;;;9.98;52.09
86115;BME280;76768;49.464;10.882;2024-02-26T11:21:58;96288.13;;;10.08;54.04
86115;BME280;76768;49.464;10.882;2024-02-26T11:24:26;96277.97;;;10.05;52.19
86115;BME280;76768;49.464;10.882;2024-02-26T11:26:55;96285.19;;;10.02;51.29
86115;BME280;76768;49.464;10.882;2024-02-26T11:29:28;96288.91;;;10.08;50.04
86115;BME280;76768;49.464;10.882;2024-02-26T11:31:59;96283.34;;;10.27;52.42
86115;BME280;76768;49.464;10.882;2024-02-26T11:34:25;96281.16;;;10.40;52.59
86115;BME280;76768;49.464;10.882;2024-02-26T11:36:50;96262.66;;;10.46;50.82
86115;BME280;76768;49.464;10.882;2024-02-26T11:39:16;96277.09;;;10.69;51.38
86115;BME280;76768;49.464;10.882;2024-02-26T11:41:42;96281.69;;;10.81;50.89
86115;BME280;76768;49.464;10.882;2024-02-26T11:44:08;96271.94;;;10.85;50.62
86115;BME280;76768;49.464;10.882;2024-02-26T11:46:42;96278.84;;;10.99;48.59
86115;BME280;76768;49.464;10.882;2024-02-26T11:51:55;96280.59;;;11.21;49.37
86115;BME280;76768;49.464;10.882;2024-02-26T11:54:49;96285.75;;;11.37;49.15
86115;BME280;76768;49.464;10.882;2024-02-26T11:59:48;96284.16;;;11.45;47.96
86115;BME280;76768;49.464;10.882;2024-02-26T12:05:25;96265.22;;;11.58;48.40
86115;BME280;76768;49.464;10.882;2024-02-26T12:10:28;96262.75;;;11.60;48.38
86115;BME280;76768;49.464;10.882;2024-02-26T12:13:13;96269.47;;;11.69;47.99
86115;BME280;76768;49.464;10.882;2024-02-26T12:15:42;96266.03;;;11.74;47.66
86115;BME280;76768;49.464;10.882;2024-02-26T12:18:09;96261.41;;;11.71;47.74
86115;BME280;76768;49.464;10.882;2024-02-26T12:20:38;96277.47;;;11.76;47.91
86115;BME280;76768;49.464;10.882;2024-02-26T12:23:04;96274.28;;;11.68;44.91
86115;BME280;76768;49.464;10.882;2024-02-26T12:25:31;96279.19;;;11.49;45.21
86115;BME280;76768;49.464;10.882;2024-02-26T12:27:57;96282.88;;;11.55;45.92
86115;BME280;76768;49.464;10.882;2024-02-26T12:30:23;96284.06;;;11.63;45.59
86115;BME280;76768;49.464;10.882;2024-02-26T12:32:50;96276.34;;;11.58;42.75
86115;BME280;76768;49.464;10.882;2024-02-26T12:35:16;96274.75;;;11.66;44.29
86115;BME280;76768;49.464;10.882;2024-02-26T12:37:42;96284.84;;;11.79;43.62
86115;BME280;76768;49.464;10.882;2024-02-26T12:40:08;96283.28;;;11.87;42.40
86115;BME280;76768;49.464;10.882;2024-02-26T12:42:35;96283.81;;;12.00;44.31
86115;BME280;76768;49.464;10.882;2024-02-26T12:45:06;96289.03;;;12.22;43.94
86115;BME280;76768;49.464;10.882;2024-02-26T12:47:36;96287.91;;;12.29;42.79
86115;BME280;76768;49.464;10.882;2024-02-26T12:50:03;96293.06;;;12.36;40.94
86115;BME280;76768;49.464;10.882;2024-02-26T12:52:33;96285.00;;;12.53;43.70
86115;BME280;76768;49.464;10.882;2024-02-26T12:54:59;96285.81;;;12.53;42.71
86115;BME280;76768;49.464;10.882;2024-02-26T12:57:24;96282.16;;;12.62;42.81
86115;BME280;76768;49.464;10.882;2024-02-26T12:59:51;96295.56;;;12.93;43.59
86115;BME280;76768;49.464;10.882;2024-02-26T13:02:16;96296.41;;;13.14;42.04
86115;BME280;76768;49.464;10.882;2024-02-26T13:04:42;96302.69;;;13.24;41.72